Time;durP1;ratioP1;P1;durP2;ratioP2;P2;SDS_P1;SDS_P2;PMS_P1;PMS_P2;Temp;Humidity;BMP_temperature;BMP_pressure;BME280_temperature;BME280_humidity;BME280_pressure;Samples;Min_cycle;Max_cycle;Signal;HPM_P1;HPM_P2
2022/11/14 00:02:17;;;;;;;3.72;2.97;;;19.90;71.70;;;;;;10555416;28;20134;-29
2022/11/14 00:07:19;;;;;;;6.78;3.70;;;19.90;71.30;;;;;;10567428;28;20050;-28
2022/11/14 00:12:21;;;;;;;3.90;2.90;;;19.90;71.50;;;;;;10560594;28;20401;-29
2022/11/14 00:17:24;;;;;;;3.55;2.70;;;19.80;71.50;;;;;;10559219;28;20051;-28
2022/11/14 00:22:26;;;;;;;4.72;3.22;;;19.80;71.40;;;;;;10564145;28;20482;-35
2022/11/14 00:27:28;;;;;;;5.25;3.28;;;19.80;71.10;;;;;;10564332;28;20086;-32
2022/11/14 00:32:31;;;;;;;5.35;3.00;;;19.80;71.20;;;;;;10563602;28;20046;-30
2022/11/14 00:37:33;;;;;;;5.03;3.13;;;19.70;71.20;;;;;;10571851;28;20087;-32
2022/11/14 00:42:35;;;;;;;3.80;2.90;;;19.70;71.20;;;;;;10560889;28;20039;-28
2022/11/14 00:47:38;;;;;;;4.93;3.00;;;19.70;71.30;;;;;;10553246;28;20044;-30
2022/11/14 00:52:40;;;;;;;4.32;3.03;;;19.70;71.40;;;;;;10558792;28;20453;-28
2022/11/14 00:57:42;;;;;;;4.00;2.78;;;19.70;71.30;;;;;;10552946;28;20091;-29
2022/11/14 01:02:45;;;;;;;8.15;2.80;;;19.70;71.20;;;;;;10561862;28;20139;-29
2022/11/14 01:07:47;;;;;;;5.47;3.00;;;19.60;71.20;;;;;;10559978;28;20584;-28
2022/11/14 01:12:49;;;;;;;3.90;2.88;;;19.60;71.00;;;;;;10549015;28;20059;-32
2022/11/14 01:17:52;;;;;;;3.90;2.75;;;19.60;71.00;;;;;;10560332;28;20473;-29
2022/11/14 01:22:54;;;;;;;4.38;3.10;;;19.60;71.10;;;;;;10552657;28;20126;-31
2022/11/14 01:27:55;;;;;;;4.43;2.88;;;19.60;70.90;;;;;;10555142;28;20052;-28
2022/11/14 01:32:59;;;;;;;4.55;3.38;;;19.60;71.00;;;;;;10558044;28;20700;-25
2022/11/14 01:38:01;;;;;;;4.78;2.90;;;19.60;71.00;;;;;;10554191;28;20055;-33
2022/11/14 01:43:22;;;;;;;;;;;19.60;70.90;;;;;;10552032;28;20059;-28
2022/11/14 01:48:31;;;;;;;3.53;2.80;;;19.50;70.80;;;;;;10561233;28;20014;-31
2022/11/14 01:53:33;;;;;;;3.05;2.58;;;19.60;70.70;;;;;;10554088;28;20043;-29
2022/11/14 01:58:38;;;;;;;3.58;2.80;;;19.60;70.70;;;;;;10561571;28;20496;-29
2022/11/14 02:03:44;;;;;;;5.60;2.80;;;19.50;70.70;;;;;;10548961;28;20155;-29
2022/11/14 02:08:46;;;;;;;4.60;2.92;;;19.50;70.40;;;;;;10559574;28;20097;-29
2022/11/14 02:13:48;;;;;;;3.85;2.47;;;19.50;70.40;;;;;;10563535;28;20051;-31
2022/11/14 02:18:51;;;;;;;6.68;2.85;;;19.40;70.50;;;;;;10558087;28;20119;-29
2022/11/14 02:23:54;;;;;;;4.13;2.25;;;19.40;70.40;;;;;;10552039;28;20127;-26
2022/11/14 02:28:56;;;;;;;4.57;2.95;;;19.40;70.60;;;;;;10556122;28;20134;-28
2022/11/14 02:33:58;;;;;;;3.00;2.55;;;19.40;70.30;;;;;;10560450;28;20043;-29
2022/11/14 02:39:01;;;;;;;4.45;2.95;;;19.40;70.20;;;;;;10557230;28;20465;-34
2022/11/14 02:44:03;;;;;;;3.85;2.42;;;19.40;70.40;;;;;;10559363;28;20180;-32
2022/11/14 02:49:05;;;;;;;5.18;2.90;;;19.40;70.20;;;;;;10550954;28;20040;-34
2022/11/14 02:54:09;;;;;;;4.80;2.67;;;19.40;70.20;;;;;;10560842;28;20112;-35
2022/11/14 02:59:11;;;;;;;3.80;2.65;;;19.30;70.30;;;;;;10557440;28;20047;-29
2022/11/14 03:04:12;;;;;;;3.97;2.60;;;19.30;70.20;;;;;;10568098;28;20716;-28
2022/11/14 03:09:17;;;;;;;3.05;2.25;;;19.30;70.00;;;;;;10551575;28;20431;-28
2022/11/14 03:14:19;;;;;;;4.80;2.45;;;19.30;70.00;;;;;;10565531;28;20052;-30
2022/11/14 03:19:20;;;;;;;3.28;2.50;;;19.30;69.90;;;;;;10562637;28;20047;-28
2022/11/14 03:24:24;;;;;;;3.45;2.33;;;19.30;69.90;;;;;;10545530;28;20478;-29
2022/11/14 03:29:25;;;;;;;3.47;2.20;;;19.30;69.80;;;;;;10561662;28;20071;-29
2022/11/14 03:34:27;;;;;;;2.72;2.20;;;19.30;69.80;;;;;;10563119;28;20097;-30
2022/11/14 03:39:30;;;;;;;3.53;2.60;;;19.20;69.70;;;;;;10558038;28;20382;-31
2022/11/14 03:44:32;;;;;;;3.28;2.53;;;19.30;69.50;;;;;;10566237;28;20075;-30
2022/11/14 03:49:34;;;;;;;2.88;2.30;;;19.20;69.60;;;;;;10560018;28;20044;-30
2022/11/14 03:54:38;;;;;;;3.35;2.67;;;19.30;69.40;;;;;;10564193;28;20043;-28
2022/11/14 03:59:39;;;;;;;3.00;2.30;;;19.20;69.40;;;;;;10554559;28;20101;-32
2022/11/14 04:04:41;;;;;;;3.72;2.58;;;19.20;69.30;;;;;;10555046;28;20370;-31
2022/11/14 04:09:46;;;;;;;2.15;1.77;;;19.20;69.30;;;;;;10548360;28;20047;-30
2022/11/14 04:14:47;;;;;;;3.42;2.45;;;19.20;69.10;;;;;;10552880;28;20758;-29
2022/11/14 04:19:50;;;;;;;3.25;2.00;;;19.10;68.90;;;;;;10570110;28;20124;-28
2022/11/14 04:24:53;;;;;;;3.10;2.33;;;19.10;68.80;;;;;;10552813;28;20054;-29
2022/11/14 04:29:55;;;;;;;3.53;2.05;;;19.10;68.90;;;;;;10562499;28;20143;-28
2022/11/14 04:34:56;;;;;;;4.18;2.38;;;19.10;68.90;;;;;;10557939;28;20056;-30
2022/11/14 04:40:01;;;;;;;3.42;2.30;;;19.10;68.70;;;;;;10558018;28;20120;-30
2022/11/14 04:45:03;;;;;;;3.38;2.35;;;19.10;68.70;;;;;;10572446;28;20052;-29
2022/11/14 04:50:06;;;;;;;;;;;19.10;69.30;;;;;;10554302;28;20423;-29
2022/11/14 04:55:09;;;;;;;4.22;2.90;;;19.00;68.50;;;;;;10556547;28;20402;-28
2022/11/14 05:00:12;;;;;;;2.60;2.20;;;19.00;68.50;;;;;;10562768;28;20052;-29
2022/11/14 05:05:14;;;;;;;2.65;2.20;;;19.00;68.50;;;;;;10571857;28;20093;-30
2022/11/14 05:10:18;;;;;;;2.83;2.22;;;19.00;68.20;;;;;;10560829;28;20055;-29
2022/11/14 05:15:20;;;;;;;3.30;2.53;;;18.90;68.40;;;;;;10563420;28;20051;-28
2022/11/14 05:20:22;;;;;;;3.60;2.70;;;19.00;68.30;;;;;;10551704;28;20125;-34
2022/11/14 05:25:25;;;;;;;4.35;2.78;;;19.00;68.20;;;;;;10565524;28;20063;-28
2022/11/14 05:30:27;;;;;;;3.33;2.35;;;18.90;68.20;;;;;;10544960;28;20036;-29
2022/11/14 05:35:29;;;;;;;2.80;2.42;;;19.00;68.20;;;;;;10558678;28;20470;-29
2022/11/14 05:40:32;;;;;;;2.65;2.00;;;18.90;68.10;;;;;;10555958;28;20075;-29
2022/11/14 05:45:33;;;;;;;3.90;2.58;;;18.90;67.90;;;;;;10566437;28;20031;-28
2022/11/14 05:50:35;;;;;;;3.63;2.42;;;18.90;68.00;;;;;;10556688;28;20044;-28
2022/11/14 05:55:39;;;;;;;2.85;2.38;;;18.90;68.00;;;;;;10556822;28;20101;-28
2022/11/14 06:00:41;;;;;;;3.25;2.40;;;19.00;67.90;;;;;;10552758;28;20071;-28
2022/11/14 06:05:43;;;;;;;2.35;2.15;;;19.00;68.40;;;;;;10563904;28;20158;-30
2022/11/14 06:10:47;;;;;;;2.35;2.15;;;19.00;67.90;;;;;;10563551;28;20102;-28
2022/11/14 06:15:48;;;;;;;3.10;2.30;;;18.90;68.20;;;;;;10565430;28;20396;-32
2022/11/14 06:20:50;;;;;;;5.15;2.60;;;18.90;68.40;;;;;;10554138;28;20582;-30
2022/11/14 06:25:58;;;;;;;3.28;2.20;;;19.00;68.40;;;;;;10551294;28;20134;-30
2022/11/14 06:31:01;;;;;;;3.75;2.58;;;19.00;68.60;;;;;;10553366;28;20078;-29
2022/11/14 06:36:05;;;;;;;3.40;2.50;;;19.10;68.40;;;;;;10547077;28;20055;-33
2022/11/14 06:41:10;;;;;;;5.55;3.03;;;19.10;68.50;;;;;;10554801;28;20040;-27
2022/11/14 06:46:15;;;;;;;6.63;2.55;;;19.00;68.90;;;;;;10534731;28;20382;-28
2022/11/14 06:51:17;;;;;;;2.95;2.38;;;19.00;68.70;;;;;;10541506;28;20083;-32
2022/11/14 06:56:20;;;;;;;4.65;2.60;;;19.00;69.60;;;;;;10539652;28;20043;-28
2022/11/14 07:01:24;;;;;;;4.10;2.88;;;19.10;68.80;;;;;;10546036;28;20448;-27
2022/11/14 07:15:29;;;;;;;7.57;2.97;;;19.00;68.00;;;;;;10500137;27;20892;-29
2022/11/14 07:20:31;;;;;;;7.78;3.40;;;19.00;68.70;;;;;;10499094;28;20092;-30
2022/11/14 07:25:33;;;;;;;5.45;2.92;;;19.00;69.10;;;;;;10495450;28;20134;-31
2022/11/14 07:30:36;;;;;;;6.40;2.88;;;19.10;69.30;;;;;;10490311;28;20051;-29
2022/11/14 07:35:39;;;;;;;3.28;2.58;;;19.00;68.70;;;;;;10482713;28;20482;-30
2022/11/14 07:40:41;;;;;;;5.97;2.72;;;19.00;68.60;;;;;;10475003;28;20046;-29
2022/11/14 07:45:44;;;;;;;5.32;2.60;;;19.00;68.50;;;;;;10483530;28;20080;-31
2022/11/14 07:50:46;;;;;;;6.85;2.97;;;19.00;68.30;;;;;;10478519;28;20041;-31
2022/11/14 07:55:48;;;;;;;8.48;3.20;;;19.00;68.20;;;;;;10494150;28;20124;-28
2022/11/14 08:00:51;;;;;;;6.75;2.78;;;19.00;68.10;;;;;;10478371;28;20115;-31
2022/11/14 08:06:00;;;;;;;5.20;3.17;;;19.00;68.00;;;;;;10478133;28;20485;-29
2022/11/14 08:11:02;;;;;;;5.60;3.17;;;19.00;67.80;;;;;;10480559;28;20110;-34
2022/11/14 08:16:07;;;;;;;3.92;2.72;;;19.10;67.60;;;;;;10482576;28;20515;-29
2022/11/14 08:21:09;;;;;;;9.50;3.30;;;19.00;67.80;;;;;;10486127;28;20090;-32
2022/11/14 08:26:11;;;;;;;4.15;3.03;;;19.10;67.50;;;;;;10455556;28;20094;-29
2022/11/14 08:31:14;;;;;;;7.05;3.80;;;19.00;67.50;;;;;;10465007;28;20516;-30
2022/11/14 08:36:16;;;;;;;7.72;3.30;;;19.00;67.50;;;;;;10456744;28;20040;-29
2022/11/14 08:41:18;;;;;;;6.38;2.90;;;19.00;67.40;;;;;;10459209;28;20460;-31
2022/11/14 08:46:22;;;;;;;5.07;2.40;;;18.90;67.30;;;;;;10454252;28;20090;-29
2022/11/14 08:51:23;;;;;;;4.30;3.00;;;18.90;67.20;;;;;;10454147;28;20451;-28
2022/11/14 08:56:25;;;;;;;3.65;2.53;;;18.90;67.10;;;;;;10459172;28;20098;-30
2022/11/14 09:01:31;;;;;;;3.67;2.67;;;18.90;67.30;;;;;;10461838;28;20673;-30
2022/11/14 09:06:33;;;;;;;5.78;2.88;;;18.90;67.00;;;;;;10463171;28;20051;-28
2022/11/14 09:11:35;;;;;;;5.18;3.00;;;18.90;67.00;;;;;;10445555;28;20067;-26
2022/11/14 09:16:38;;;;;;;4.75;2.95;;;18.90;67.00;;;;;;10437052;28;20046;-31
2022/11/14 09:21:40;;;;;;;3.17;2.75;;;18.90;66.80;;;;;;10429561;28;20596;-28
2022/11/14 09:26:42;;;;;;;3.17;2.63;;;18.90;66.80;;;;;;10450587;28;20084;-31
2022/11/14 09:31:45;;;;;;;3.78;2.97;;;19.00;66.70;;;;;;10449441;28;20056;-31
2022/11/14 09:36:47;;;;;;;5.20;3.38;;;18.90;66.70;;;;;;10446562;28;20049;-32
2022/11/14 09:41:59;;;;;;;4.65;3.28;;;18.90;66.70;;;;;;10444948;28;20099;-30
2022/11/14 09:47:07;;;;;;;7.63;3.28;;;18.90;66.80;;;;;;10431121;28;20053;-29
2022/11/14 09:52:19;;;;;;;3.42;2.70;;;18.90;66.60;;;;;;10448532;28;20096;-30
2022/11/14 09:57:22;;;;;;;5.20;3.10;;;19.00;66.40;;;;;;10441249;28;20048;-28
2022/11/14 10:02:36;;;;;;;4.95;3.13;;;18.90;66.40;;;;;;10448264;28;20055;-33
2022/11/14 10:07:54;;;;;;;8.90;2.95;;;18.90;66.30;;;;;;10446279;28;20107;-30
2022/11/14 10:13:03;;;;;;;4.25;3.03;;;19.00;66.10;;;;;;10447661;28;20102;-30
2022/11/14 10:18:24;;;;;;;8.65;3.20;;;19.00;66.30;;;;;;10448313;28;20056;-34
2022/11/14 10:23:36;;;;;;;5.28;2.92;;;19.00;66.00;;;;;;10448708;28;20101;-29
2022/11/14 10:28:59;;;;;;;5.00;3.05;;;19.00;65.70;;;;;;10458629;28;20048;-28
2022/11/14 10:34:09;;;;;;;5.97;3.30;;;19.00;65.80;;;;;;10449214;28;20131;-31
2022/11/14 10:39:16;;;;;;;6.32;3.53;;;19.00;65.90;;;;;;10436950;28;20041;-29
2022/11/14 10:44:24;;;;;;;5.50;3.35;;;19.00;65.70;;;;;;10446515;28;20037;-31
2022/11/14 10:49:32;;;;;;;4.35;3.22;;;18.90;66.30;;;;;;10433311;28;20179;-32
2022/11/14 10:54:40;;;;;;;6.63;3.00;;;19.00;65.60;;;;;;10444216;28;20044;-27
2022/11/14 10:59:43;;;;;;;5.05;3.10;;;19.00;65.50;;;;;;10441120;28;20528;-27
2022/11/14 11:04:46;;;;;;;6.20;3.47;;;18.90;65.50;;;;;;10452618;28;20038;-31
2022/11/14 11:15:21;;;;;;;7.55;3.50;;;19.00;65.50;;;;;;10436337;28;20058;-29
2022/11/14 11:20:32;;;;;;;8.23;3.70;;;18.90;65.60;;;;;;10432875;28;20406;-30
2022/11/14 11:25:34;;;;;;;6.70;4.28;;;18.90;65.60;;;;;;10450798;28;20055;-34
2022/11/14 11:30:36;;;;;;;;;;;18.90;65.50;;;;;;10451783;28;20048;-31
2022/11/14 11:35:41;;;;;;;11.03;4.07;;;18.90;65.60;;;;;;10466029;28;19969;-31
2022/11/14 11:40:46;;;;;;;6.47;3.47;;;18.90;65.70;;;;;;10445668;28;20612;-31
2022/11/14 11:45:50;;;;;;;8.07;4.60;;;18.90;65.50;;;;;;10448436;28;20044;-30
2022/11/14 11:50:54;;;;;;;5.97;3.88;;;18.90;65.20;;;;;;10450602;28;20124;-31
2022/11/14 11:56:01;;;;;;;8.10;4.07;;;18.90;65.20;;;;;;10442813;28;20068;-32
2022/11/14 12:01:03;;;;;;;7.82;4.03;;;18.90;65.20;;;;;;10452296;28;20041;-29
2022/11/14 12:06:14;;;;;;;7.90;4.28;;;18.90;65.30;;;;;;10465468;28;20044;-28
2022/11/14 12:11:19;;;;;;;7.43;4.13;;;18.90;65.40;;;;;;10451004;28;20056;-32
2022/11/14 12:16:39;;;;;;;6.15;4.10;;;18.90;65.40;;;;;;10451018;28;20080;-34
2022/11/14 12:22:01;;;;;;;11.50;4.13;;;18.90;65.50;;;;;;10439701;28;20052;-29
2022/11/14 12:27:15;;;;;;;7.50;4.03;;;19.00;65.30;;;;;;10452292;28;20041;-31
2022/11/14 12:32:25;;;;;;;7.18;4.22;;;18.90;65.80;;;;;;10443839;28;20092;-28
2022/11/14 12:37:37;;;;;;;10.88;4.88;;;19.00;65.20;;;;;;10457263;28;20056;-28
2022/11/14 12:42:46;;;;;;;11.18;4.32;;;19.10;65.60;;;;;;10450168;28;20083;-31
2022/11/14 12:48:15;;;;;;;9.15;4.40;;;19.10;66.00;;;;;;10459763;28;20098;-34
2022/11/14 12:53:43;;;;;;;7.88;4.68;;;19.10;66.00;;;;;;10460064;28;20086;-29
2022/11/14 12:59:07;;;;;;;10.73;5.20;;;19.10;66.10;;;;;;10439734;28;20146;-30
2022/11/14 13:04:23;;;;;;;9.32;4.95;;;19.10;66.10;;;;;;10446993;28;20045;-29
2022/11/14 13:09:41;;;;;;;10.88;4.88;;;19.30;65.70;;;;;;10451418;28;20091;-30
2022/11/14 13:26:32;;;;;;;7.35;4.45;;;19.90;64.20;;;;;;10452565;28;20450;-30
2022/11/14 13:31:50;;;;;;;7.65;4.82;;;20.00;64.10;;;;;;10447824;28;20493;-28
2022/11/14 13:36:59;;;;;;;11.98;4.10;;;19.90;63.80;;;;;;10465767;28;20087;-27
2022/11/14 13:42:16;;;;;;;7.47;4.22;;;20.10;63.70;;;;;;10448114;28;20068;-32
2022/11/14 13:47:35;;;;;;;8.05;4.00;;;20.10;63.50;;;;;;10453588;28;20052;-33
2022/11/14 13:52:42;;;;;;;5.63;3.85;;;20.20;63.30;;;;;;10462409;28;20559;-28
2022/11/14 13:57:56;;;;;;;9.65;4.50;;;20.30;63.00;;;;;;10452249;28;20072;-29
2022/11/14 14:03:11;;;;;;;8.70;4.03;;;20.30;62.90;;;;;;10468990;28;20059;-31
2022/11/14 14:08:28;;;;;;;7.72;4.05;;;20.40;62.60;;;;;;10451580;28;20052;-29
2022/11/14 14:13:47;;;;;;;5.90;3.70;;;20.30;63.00;;;;;;10456164;28;20081;-28
2022/11/14 14:18:58;;;;;;;5.65;4.00;;;20.40;63.00;;;;;;10436776;28;20049;-32
2022/11/14 14:24:09;;;;;;;8.57;4.25;;;20.40;62.90;;;;;;10453949;28;20122;-30
2022/11/14 14:29:23;;;;;;;4.53;3.28;;;20.50;62.60;;;;;;10427717;28;20111;-27
2022/11/14 14:34:28;;;;;;;4.47;3.20;;;20.60;62.40;;;;;;10443283;28;20447;-30
2022/11/14 14:39:30;;;;;;;6.60;3.33;;;20.60;62.10;;;;;;10460689;28;20053;-26
2022/11/14 14:44:38;;;;;;;6.05;3.33;;;20.60;62.30;;;;;;10443758;28;20045;-28
2022/11/14 14:49:40;;;;;;;4.05;3.17;;;20.60;62.10;;;;;;10450348;28;20121;-29
2022/11/14 14:54:42;;;;;;;6.30;2.95;;;20.70;62.00;;;;;;10452303;28;20053;-28
2022/11/14 14:59:45;;;;;;;6.18;3.30;;;20.70;61.90;;;;;;10434659;28;20107;-27
2022/11/14 15:04:47;;;;;;;6.18;3.55;;;20.80;61.80;;;;;;10438315;28;20145;-29
2022/11/14 15:09:53;;;;;;;9.35;4.30;;;20.70;61.80;;;;;;10436027;28;20481;-29
2022/11/14 15:14:57;;;;;;;5.30;4.05;;;20.70;62.10;;;;;;10441191;28;20478;-33
2022/11/14 15:19:59;;;;;;;9.85;4.03;;;20.60;62.50;;;;;;10423441;28;20046;-29
2022/11/14 15:25:19;;;;;;;6.05;3.50;;;20.70;62.30;;;;;;10435908;28;20049;-31
2022/11/14 15:30:25;;;;;;;4.40;2.95;;;20.80;61.90;;;;;;10442171;28;20164;-31
2022/11/14 15:35:30;;;;;;;2.95;2.60;;;20.90;62.00;;;;;;10453292;28;20560;-35
2022/11/14 15:40:34;;;;;;;5.00;3.50;;;20.90;62.30;;;;;;10453499;28;20102;-28
2022/11/14 15:45:40;;;;;;;4.25;2.75;;;21.00;62.50;;;;;;10454068;28;20495;-29
2022/11/14 15:50:49;;;;;;;16.65;3.00;;;21.00;62.40;;;;;;10449809;28;20048;-30
2022/11/14 15:55:51;;;;;;;3.88;2.80;;;21.00;63.80;;;;;;10458775;28;20151;-34
2022/11/14 16:00:55;;;;;;;4.82;3.00;;;21.20;62.60;;;;;;10458863;28;20040;-33
2022/11/14 16:05:57;;;;;;;7.05;3.25;;;21.20;62.30;;;;;;10464079;28;20937;-33
2022/11/14 16:10:59;;;;;;;4.25;2.88;;;21.20;62.20;;;;;;10463958;28;20107;-30
2022/11/14 16:16:06;;;;;;;5.25;3.28;;;21.20;62.30;;;;;;10460983;28;20053;-29
2022/11/14 16:21:19;;;;;;;3.30;2.60;;;21.20;62.30;;;;;;10457507;28;20132;-30
2022/11/14 16:26:35;;;;;;;5.25;2.70;;;21.30;62.30;;;;;;10453641;28;20041;-26
2022/11/14 16:31:52;;;;;;;3.55;2.75;;;21.20;62.30;;;;;;10441140;28;20037;-26
2022/11/14 16:37:24;;;;;;;4.13;2.50;;;21.30;62.30;;;;;;10454971;28;20057;-25
2022/11/14 16:42:28;;;;;;;4.35;2.78;;;21.30;62.60;;;;;;10461332;28;20087;-27
2022/11/14 16:47:34;;;;;;;3.88;2.72;;;21.30;62.10;;;;;;10456356;28;20059;-28
2022/11/14 16:52:38;;;;;;;4.90;3.25;;;21.30;62.00;;;;;;10438641;28;20164;-30
2022/11/14 16:57:42;;;;;;;5.38;2.90;;;21.30;61.60;;;;;;10452386;28;20428;-30
2022/11/14 17:02:46;;;;;;;6.82;2.75;;;21.30;61.60;;;;;;10454834;28;20513;-28
2022/11/14 17:07:48;;;;;;;6.30;2.97;;;21.30;61.30;;;;;;10441249;28;20068;-28
2022/11/14 17:12:50;;;;;;;;;;;21.20;61.50;;;;;;10461707;28;20061;-29
2022/11/14 17:17:53;;;;;;;9.23;8.27;;;21.20;61.40;;;;;;10453119;28;19920;-29
2022/11/14 17:22:55;;;;;;;19.40;13.38;;;21.20;61.60;;;;;;10450502;28;20052;-34
2022/11/14 17:27:57;;;;;;;25.65;17.58;;;21.20;61.80;;;;;;10442770;28;20114;-29
2022/11/14 17:33:01;;;;;;;;;;;21.20;62.00;;;;;;10445085;28;20103;-30
2022/11/14 17:38:03;;;;;;;35.42;25.08;;;21.20;62.10;;;;;;10454914;28;20012;-30
2022/11/14 17:43:05;;;;;;;30.80;27.48;;;21.10;62.20;;;;;;10447625;28;20410;-33
2022/11/14 17:48:09;;;;;;;38.22;29.40;;;21.10;62.20;;;;;;10445336;28;20052;-32
2022/11/14 17:53:12;;;;;;;36.08;30.88;;;21.10;62.00;;;;;;10460974;28;20048;-30
2022/11/14 17:58:15;;;;;;;45.55;31.80;;;21.20;61.80;;;;;;10443380;28;20045;-28
2022/11/14 18:03:19;;;;;;;39.42;32.65;;;21.20;61.70;;;;;;10465298;28;20053;-28
2022/11/14 18:08:21;;;;;;;37.03;31.38;;;21.20;61.70;;;;;;10443774;28;20144;-31
2022/11/14 18:13:23;;;;;;;42.85;31.55;;;21.20;61.50;;;;;;10433553;28;20383;-29
2022/11/14 18:18:27;;;;;;;42.00;29.40;;;21.20;61.50;;;;;;10448061;28;20076;-30
2022/11/14 18:23:29;;;;;;;34.92;28.17;;;21.40;61.60;;;;;;10449570;28;20049;-32
2022/11/14 18:28:30;;;;;;;33.88;26.30;;;21.20;62.10;;;;;;10456423;28;20434;-31
2022/11/14 18:33:34;;;;;;;27.83;23.08;;;21.10;61.50;;;;;;10450326;28;20077;-31
2022/11/14 18:38:36;;;;;;;24.92;20.70;;;21.00;61.60;;;;;;10444553;28;20048;-31
2022/11/14 18:43:38;;;;;;;27.48;20.67;;;21.00;61.60;;;;;;10448235;28;20073;-33
2022/11/14 18:48:43;;;;;;;24.05;18.13;;;20.90;61.10;;;;;;10441966;28;20038;-32
2022/11/14 18:53:46;;;;;;;23.73;16.65;;;20.90;61.10;;;;;;10442035;28;20140;-32
2022/11/14 18:58:53;;;;;;;18.60;14.68;;;21.00;61.00;;;;;;10435657;28;20198;-30
2022/11/14 19:03:58;;;;;;;19.73;13.45;;;21.00;60.50;;;;;;10448377;28;20731;-32
2022/11/14 19:09:01;;;;;;;16.35;11.98;;;20.90;60.60;;;;;;10446481;28;20138;-34
2022/11/14 19:14:05;;;;;;;15.43;12.05;;;20.80;60.60;;;;;;10450173;28;20099;-30
2022/11/14 19:19:08;;;;;;;16.45;12.20;;;20.90;60.30;;;;;;10442420;28;20045;-29
2022/11/14 19:24:10;;;;;;;15.30;11.85;;;20.90;60.00;;;;;;10443662;28;20041;-33
2022/11/14 19:29:13;;;;;;;15.90;10.63;;;21.00;59.70;;;;;;10442535;28;20517;-31
2022/11/14 19:34:16;;;;;;;;;;;21.00;59.70;;;;;;10449214;28;20460;-31
2022/11/14 19:39:17;;;;;;;20.38;10.45;;;21.10;59.50;;;;;;10453850;28;19929;-36
2022/11/14 19:44:19;;;;;;;20.27;12.30;;;21.10;59.30;;;;;;10454148;28;20045;-32
2022/11/14 19:49:23;;;;;;;23.52;11.57;;;21.10;59.20;;;;;;10454135;28;20459;-32
2022/11/14 19:54:25;;;;;;;15.27;10.35;;;21.10;59.40;;;;;;10448757;28;20055;-31
2022/11/14 19:59:28;;;;;;;17.33;11.13;;;21.10;59.30;;;;;;10446554;28;20099;-39
2022/11/14 20:04:31;;;;;;;16.60;11.88;;;21.10;59.50;;;;;;10431513;28;20413;-31
2022/11/14 20:09:33;;;;;;;16.13;11.13;;;21.10;59.80;;;;;;10439800;28;20045;-34
2022/11/14 20:14:35;;;;;;;17.88;10.82;;;21.10;59.80;;;;;;10432946;28;20060;-35
2022/11/14 20:19:38;;;;;;;16.63;9.93;;;21.10;59.80;;;;;;10441171;28;20052;-31
2022/11/14 20:24:40;;;;;;;14.10;10.00;;;21.10;59.30;;;;;;10451343;28;20052;-31
2022/11/14 20:29:43;;;;;;;13.85;9.50;;;21.20;58.70;;;;;;10447394;28;20049;-32
2022/11/14 20:34:46;;;;;;;20.40;9.50;;;21.10;58.50;;;;;;10447271;28;20053;-31
2022/11/14 20:39:48;;;;;;;15.60;9.35;;;21.10;58.10;;;;;;10445180;28;20055;-31
2022/11/14 20:44:50;;;;;;;13.18;8.50;;;21.10;57.90;;;;;;10445451;28;20081;-31
2022/11/14 20:49:53;;;;;;;16.17;9.68;;;21.10;57.50;;;;;;10450221;28;20134;-30
2022/11/14 20:54:55;;;;;;;15.32;8.10;;;21.10;57.50;;;;;;10460089;28;20080;-35
2022/11/14 20:59:57;;;;;;;16.80;7.97;;;21.10;57.20;;;;;;10452340;28;20076;-35
2022/11/14 21:05:00;;;;;;;12.35;8.15;;;21.10;57.10;;;;;;10463382;28;20071;-32
2022/11/14 21:15:22;;;;;;;14.13;7.78;;;21.10;57.00;;;;;;10452993;28;20103;-31
2022/11/14 21:20:26;;;;;;;12.63;7.32;;;21.10;56.60;;;;;;10453935;28;20045;-35
2022/11/14 21:25:29;;;;;;;15.40;7.57;;;21.00;56.70;;;;;;10448705;28;20172;-37
2022/11/14 21:30:31;;;;;;;14.90;7.90;;;21.00;56.50;;;;;;10455575;28;20448;-31
2022/11/14 21:35:34;;;;;;;11.82;7.35;;;21.10;56.40;;;;;;10450050;28;20071;-31
2022/11/14 21:40:36;;;;;;;19.00;7.25;;;21.10;56.30;;;;;;10449754;28;20049;-32
2022/11/14 21:45:38;;;;;;;13.30;6.63;;;21.00;56.60;;;;;;10448819;28;20099;-30
2022/11/14 21:50:41;;;;;;;12.25;6.35;;;21.00;56.70;;;;;;10454014;28;20057;-32
2022/11/14 21:55:44;;;;;;;12.18;6.97;;;20.90;56.80;;;;;;10440507;28;20095;-31
2022/11/14 22:00:46;;;;;;;11.57;6.80;;;20.80;56.90;;;;;;10441632;28;20073;-30
2022/11/14 22:05:55;;;;;;;12.23;6.80;;;20.70;57.30;;;;;;10448707;28;20057;-31
2022/11/14 22:11:01;;;;;;;11.07;7.05;;;20.60;57.60;;;;;;10458328;28;20087;-30
2022/11/14 22:16:08;;;;;;;13.80;6.80;;;20.50;57.80;;;;;;10441405;28;20395;-33
2022/11/14 22:21:11;;;;;;;19.42;6.63;;;20.50;58.00;;;;;;10452849;28;20045;-33
2022/11/14 22:26:14;;;;;;;14.50;7.13;;;20.50;58.10;;;;;;10442426;28;20069;-31
2022/11/14 22:31:17;;;;;;;12.55;6.38;;;20.50;58.40;;;;;;10452835;28;20057;-31
2022/11/14 22:36:22;;;;;;;11.75;6.13;;;20.40;58.60;;;;;;10444332;28;20080;-30
2022/11/14 22:41:26;;;;;;;16.85;6.25;;;20.40;58.70;;;;;;10458427;28;20086;-33
2022/11/14 22:46:29;;;;;;;14.00;6.03;;;20.40;58.90;;;;;;10430070;28;20040;-29
2022/11/14 22:51:33;;;;;;;19.45;7.57;;;20.40;58.80;;;;;;10436839;28;20099;-36
2022/11/14 22:56:35;;;;;;;16.20;6.82;;;20.30;59.10;;;;;;10443794;28;20674;-31
2022/11/14 23:01:37;;;;;;;12.25;6.45;;;20.30;59.30;;;;;;10459693;28;20061;-33
2022/11/14 23:06:40;;;;;;;15.57;6.88;;;20.20;59.20;;;;;;10470913;28;20147;-31
2022/11/14 23:11:42;;;;;;;12.68;5.82;;;20.20;59.40;;;;;;10448950;28;20114;-28
2022/11/14 23:16:44;;;;;;;13.75;6.35;;;20.20;59.50;;;;;;10457758;28;20088;-31
2022/11/14 23:21:47;;;;;;;19.08;7.32;;;20.20;59.60;;;;;;10444313;28;20567;-30
2022/11/14 23:26:49;;;;;;;12.95;6.53;;;20.20;59.70;;;;;;10444416;28;20044;-33
2022/11/14 23:31:51;;;;;;;17.00;6.40;;;20.10;59.60;;;;;;10465804;28;20043;-31
2022/11/14 23:36:54;;;;;;;10.20;5.75;;;20.10;59.70;;;;;;10446109;28;20637;-31
2022/11/14 23:41:56;;;;;;;12.25;6.22;;;20.10;59.80;;;;;;10443794;28;20041;-31
2022/11/14 23:46:58;;;;;;;20.77;6.72;;;20.10;59.80;;;;;;10446551;28;20049;-31
2022/11/14 23:52:01;;;;;;;15.40;7.18;;;20.10;59.90;;;;;;10451389;28;20094;-33
2022/11/14 23:57:03;;;;;;;13.57;6.00;;;20.00;59.80;;;;;;10461054;28;20057;-31
